Time;durP1;ratioP1;P1;durP2;ratioP2;P2;SDS_P1;SDS_P2;PMS_P1;PMS_P2;Temp;Humidity;BMP_temperature;BMP_pressure;BME280_temperature;BME280_humidity;BME280_pressure;Samples;Min_cycle;Max_cycle;Signal;HPM_P1;HPM_P2
2022/09/07 00:00:35;;;;;;;5.97;0.88;;;;;;;14.71;80.62;101511.25;5010720;28;20200;-46
2022/09/07 00:03:01;;;;;;;3.75;0.77;;;;;;;14.77;80.49;101511.00;4994471;28;20192;-47
2022/09/07 00:05:27;;;;;;;5.60;1.23;;;;;;;14.76;80.51;101507.44;4998559;28;20208;-46
2022/09/07 00:07:54;;;;;;;3.17;0.90;;;;;;;14.71;80.71;101517.53;5005905;28;20224;-51
2022/09/07 00:10:20;;;;;;;4.30;0.93;;;;;;;14.62;80.97;101518.81;4994922;28;20185;-50
2022/09/07 00:12:46;;;;;;;3.60;0.88;;;;;;;14.65;81.30;101515.13;4993296;28;20177;-50
2022/09/07 00:15:12;;;;;;;4.32;0.90;;;;;;;14.71;81.22;101512.13;5000621;28;20181;-50
2022/09/07 00:17:38;;;;;;;6.90;0.80;;;;;;;14.72;81.05;101505.81;5000031;28;20212;-49
2022/09/07 00:20:06;;;;;;;5.43;1.25;;;;;;;14.81;81.50;101486.50;4999068;28;20188;-50
2022/09/07 00:22:32;;;;;;;2.80;0.80;;;;;;;14.72;81.54;101467.19;5000956;28;20187;-49
2022/09/07 00:24:58;;;;;;;3.20;0.98;;;;;;;14.66;81.81;101453.97;4997502;28;20197;-49
2022/09/07 00:27:23;;;;;;;1.92;0.85;;;;;;;14.72;81.95;101465.34;4992719;28;20340;-49
2022/09/07 00:29:49;;;;;;;5.45;1.00;;;;;;;14.72;81.77;101457.25;4996703;28;20197;-51
2022/09/07 00:32:14;;;;;;;1.52;0.90;;;;;;;14.63;81.96;101466.63;4992976;28;20185;-50
2022/09/07 00:34:41;;;;;;;1.63;0.98;;;;;;;14.62;82.15;101470.25;4994152;28;20185;-49
2022/09/07 00:37:07;;;;;;;1.60;0.88;;;;;;;14.66;82.14;101471.00;4997925;28;20247;-50
2022/09/07 00:39:32;;;;;;;5.55;1.20;;;;;;;14.60;82.08;101473.97;4996955;28;20641;-49
2022/09/07 00:41:58;;;;;;;2.22;0.85;;;;;;;14.69;82.25;101473.56;5000190;28;20200;-48
2022/09/07 00:44:42;;;;;;;5.22;0.95;;;;;;;14.59;82.24;101469.53;5000950;28;20220;-51
2022/09/07 00:47:26;;;;;;;4.93;1.02;;;;;;;14.58;82.26;101476.78;4999728;28;20228;-48
2022/09/07 00:49:59;;;;;;;0.82;0.82;;;;;;;14.60;82.57;101479.38;4994669;28;20193;-50
2022/09/07 00:52:28;;;;;;;2.45;0.90;;;;;;;14.65;82.04;101481.84;4994980;28;20232;-51
2022/09/07 00:54:58;;;;;;;2.88;0.90;;;;;;;14.57;82.51;101484.91;4997165;28;20271;-51
2022/09/07 00:57:26;;;;;;;1.38;0.90;;;;;;;14.61;82.21;101478.44;4990454;28;20267;-50
2022/09/07 00:59:54;;;;;;;2.95;0.90;;;;;;;14.65;82.26;101488.16;4993417;28;20257;-49
2022/09/07 01:02:20;;;;;;;4.00;1.00;;;;;;;14.62;82.00;101472.09;4995141;28;20193;-47
2022/09/07 01:04:49;;;;;;;3.25;0.90;;;;;;;14.63;82.18;101468.47;4996714;28;20585;-50
2022/09/07 01:07:14;;;;;;;4.50;1.08;;;;;;;14.61;82.22;101467.66;4999257;28;20208;-49
2022/09/07 01:09:41;;;;;;;1.95;0.90;;;;;;;14.51;82.67;101471.66;4998286;28;20203;-50
2022/09/07 01:12:06;;;;;;;2.35;1.00;;;;;;;14.51;82.89;101474.38;5003019;28;20185;-52
2022/09/07 01:14:36;;;;;;;2.75;0.82;;;;;;;14.59;82.55;101469.53;5002810;28;20798;-52
2022/09/07 01:17:28;;;;;;;1.77;0.77;;;;;;;14.61;82.33;101462.25;5010623;28;20308;-48
2022/09/07 01:20:18;;;;;;;1.88;0.80;;;;;;;14.54;82.61;101463.44;4983904;28;20205;-50
2022/09/07 01:23:08;;;;;;;4.63;0.77;;;;;;;14.53;82.73;101464.38;4995770;28;20196;-50
2022/09/07 01:26:10;;;;;;;2.75;1.20;;;;;;;14.46;83.02;101471.00;4997437;28;20569;-51
2022/09/07 01:28:37;;;;;;;3.85;0.93;;;;;;;14.48;83.01;101466.44;5003538;28;20659;-50
2022/09/07 01:31:25;;;;;;;1.63;1.10;;;;;;;14.53;83.03;101465.25;5004674;28;20555;-48
2022/09/07 01:34:03;;;;;;;3.13;1.10;;;;;;;14.52;83.11;101455.44;4996626;28;20265;-48
2022/09/07 01:36:31;;;;;;;1.90;1.00;;;;;;;14.53;83.38;101440.13;5001155;28;20205;-49
2022/09/07 01:39:03;;;;;;;1.67;0.80;;;;;;;14.45;83.24;101439.56;4997677;28;20213;-51
2022/09/07 01:41:51;;;;;;;4.07;1.10;;;;;;;14.42;83.74;101441.47;4996176;28;20208;-49
2022/09/07 01:44:24;;;;;;;2.15;1.00;;;;;;;14.42;83.73;101427.13;4992934;28;20169;-51
2022/09/07 01:47:04;;;;;;;6.07;0.90;;;;;;;14.50;83.59;101418.69;4994041;28;20244;-49
2022/09/07 01:49:52;;;;;;;7.15;1.40;;;;;;;14.43;83.90;101424.34;5008882;28;20187;-50
2022/09/07 01:52:37;;;;;;;2.55;1.13;;;;;;;14.53;83.68;101424.81;5004221;28;20181;-49
2022/09/07 01:55:21;;;;;;;3.53;0.93;;;;;;;14.52;83.71;101416.78;5003128;28;20173;-50
2022/09/07 01:58:05;;;;;;;4.53;1.20;;;;;;;14.56;83.67;101427.41;5003149;28;20204;-49
2022/09/07 02:00:33;;;;;;;1.88;0.88;;;;;;;14.52;83.85;101424.88;5005521;28;20865;-52
2022/09/07 02:03:14;;;;;;;3.10;1.10;;;;;;;14.48;84.12;101425.97;5006763;28;20272;-51
2022/09/07 02:05:57;;;;;;;3.05;1.00;;;;;;;14.52;84.09;101422.16;5008269;28;20200;-53
2022/09/07 02:08:31;;;;;;;2.25;1.10;;;;;;;14.51;84.22;101431.22;5010781;28;20283;-53
2022/09/07 02:11:11;;;;;;;4.25;1.25;;;;;;;14.53;84.05;101422.09;4993984;28;20193;-54
2022/09/07 02:13:50;;;;;;;4.20;1.27;;;;;;;14.53;84.11;101429.34;4995048;28;20531;-53
2022/09/07 02:16:47;;;;;;;1.30;1.05;;;;;;;14.54;84.12;101433.75;4997811;28;20680;-52
2022/09/07 02:19:17;;;;;;;3.72;1.13;;;;;;;14.58;84.06;101436.31;4999392;28;20258;-53
2022/09/07 02:21:48;;;;;;;2.58;1.10;;;;;;;14.62;83.73;101434.34;4994817;28;20180;-52
2022/09/07 02:24:23;;;;;;;3.75;1.30;;;;;;;14.64;83.32;101435.16;4999517;28;20244;-51
2022/09/07 02:26:52;;;;;;;1.85;1.40;;;;;;;14.62;83.47;101439.72;4997981;28;20196;-52
2022/09/07 02:29:18;;;;;;;1.73;1.10;;;;;;;14.59;83.66;101445.28;5007769;28;20190;-54
2022/09/07 02:31:44;;;;;;;1.90;1.42;;;;;;;14.62;83.52;101437.03;5009800;28;20185;-52
2022/09/07 02:34:09;;;;;;;4.57;1.10;;;;;;;14.72;83.20;101437.50;5003337;28;20196;-52
2022/09/07 02:36:43;;;;;;;2.00;1.15;;;;;;;14.63;83.21;101441.50;4994023;28;20213;-51
2022/09/07 02:39:08;;;;;;;2.42;1.20;;;;;;;14.53;83.93;101429.34;4999692;28;20188;-51
2022/09/07 02:41:39;;;;;;;2.05;1.27;;;;;;;14.55;84.19;101422.94;4997670;28;20188;-52
2022/09/07 02:44:09;;;;;;;1.58;1.30;;;;;;;14.55;83.63;101427.47;4999516;28;20226;-52
2022/09/07 02:46:59;;;;;;;1.75;1.20;;;;;;;14.50;83.76;101416.00;5001613;28;20299;-52
2022/09/07 02:49:50;;;;;;;2.38;1.10;;;;;;;14.42;83.99;101422.59;4999386;28;20223;-52
2022/09/07 02:52:27;;;;;;;1.95;1.10;;;;;;;14.45;84.29;101409.91;4991848;28;20610;-52
2022/09/07 02:55:19;;;;;;;2.88;1.88;;;;;;;14.37;84.06;101404.88;4994757;28;20177;-53
2022/09/07 02:58:03;;;;;;;5.88;1.45;;;;;;;14.30;84.32;101411.47;4992519;28;20205;-52
2022/09/07 03:00:32;;;;;;;1.52;1.38;;;;;;;14.36;84.35;101390.50;4992517;28;20201;-52
2022/09/07 03:03:11;;;;;;;4.35;1.52;;;;;;;14.38;84.28;101395.84;4994481;28;20199;-51
2022/09/07 03:05:58;;;;;;;2.15;1.20;;;;;;;14.40;84.16;101391.25;4998335;28;20209;-51
2022/09/07 03:08:39;;;;;;;4.18;1.45;;;;;;;14.29;84.33;101383.66;5003243;28;20712;-52
2022/09/07 03:11:06;;;;;;;1.63;1.27;;;;;;;14.30;84.55;101369.25;5000453;28;20552;-54
2022/09/07 03:13:32;;;;;;;4.40;1.20;;;;;;;14.29;84.65;101367.47;4998873;28;20587;-54
2022/09/07 03:15:57;;;;;;;4.38;1.30;;;;;;;14.33;84.43;101365.53;4995596;28;20276;-54
2022/09/07 03:18:25;;;;;;;3.72;1.40;;;;;;;14.39;84.53;101362.56;4995662;28;20217;-53
2022/09/07 03:20:51;;;;;;;5.10;1.50;;;;;;;14.32;84.47;101358.38;4993311;28;20173;-53
2022/09/07 03:23:16;;;;;;;3.13;1.45;;;;;;;14.25;84.87;101355.09;4991341;28;20211;-53
2022/09/07 03:25:42;;;;;;;1.58;1.30;;;;;;;14.26;85.26;101356.84;4994885;28;20189;-53
2022/09/07 03:28:08;;;;;;;3.08;1.13;;;;;;;14.21;85.63;101356.16;4994562;28;20259;-54
2022/09/07 03:30:34;;;;;;;2.90;1.65;;;;;;;14.27;85.48;101355.88;4995280;28;20275;-53
2022/09/07 03:32:59;;;;;;;3.55;1.40;;;;;;;14.34;85.29;101360.09;4997908;28;20267;-52
2022/09/07 03:35:25;;;;;;;3.72;1.25;;;;;;;14.22;85.41;101369.56;4997138;28;20180;-52
2022/09/07 03:37:50;;;;;;;7.85;1.70;;;;;;;14.19;85.61;101360.75;5002104;28;20417;-53
2022/09/07 03:40:16;;;;;;;4.13;1.45;;;;;;;14.31;85.56;101359.34;5004026;28;20267;-48
2022/09/07 03:42:42;;;;;;;2.75;1.40;;;;;;;14.27;85.24;101350.50;5001046;28;20255;-52
2022/09/07 03:45:08;;;;;;;3.35;1.30;;;;;;;14.25;85.50;101360.47;4996133;28;20209;-48
2022/09/07 03:47:35;;;;;;;2.95;1.70;;;;;;;14.25;85.78;101371.25;4985421;28;20208;-48
2022/09/07 03:50:00;;;;;;;4.40;1.70;;;;;;;14.19;85.73;101364.34;4991427;28;20243;-48
2022/09/07 03:52:26;;;;;;;3.40;1.50;;;;;;;14.28;85.60;101370.22;4991548;28;20720;-46
2022/09/07 03:54:51;;;;;;;3.40;1.20;;;;;;;14.31;85.61;101370.13;4991567;28;20165;-48
2022/09/07 03:57:19;;;;;;;1.70;1.60;;;;;;;14.26;85.66;101373.03;4990972;28;20197;-52
2022/09/07 03:59:45;;;;;;;4.88;1.45;;;;;;;14.24;85.66;101377.59;4999225;28;20640;-48
2022/09/07 04:02:12;;;;;;;3.67;1.52;;;;;;;14.21;85.71;101375.94;5006206;28;20684;-50
2022/09/07 04:04:37;;;;;;;4.00;1.55;;;;;;;14.17;86.18;101373.44;4991162;28;20189;-48
2022/09/07 04:07:03;;;;;;;2.42;1.40;;;;;;;14.13;86.17;101377.22;4991083;28;20192;-48
2022/09/07 04:09:29;;;;;;;1.30;1.20;;;;;;;14.19;86.16;101368.81;4991077;28;20166;-50
2022/09/07 04:11:55;;;;;;;4.00;1.55;;;;;;;14.13;86.03;101370.00;4991395;28;20211;-49
2022/09/07 04:14:20;;;;;;;1.48;1.17;;;;;;;14.24;85.91;101361.44;4994084;28;20206;-48
2022/09/07 04:16:46;;;;;;;4.40;1.75;;;;;;;14.11;85.99;101366.50;5006697;28;20259;-51
2022/09/07 04:19:11;;;;;;;2.65;1.40;;;;;;;14.15;86.45;101367.25;5010629;28;20256;-49
2022/09/07 04:21:37;;;;;;;3.63;1.58;;;;;;;14.08;86.67;101347.78;5010457;28;20173;-50
2022/09/07 04:24:02;;;;;;;1.27;1.10;;;;;;;14.15;86.31;101351.06;5010377;28;20169;-49
2022/09/07 04:26:33;;;;;;;4.93;1.88;;;;;;;14.06;86.72;101360.44;4994562;28;20205;-52
2022/09/07 04:28:59;;;;;;;3.47;1.45;;;;;;;14.11;86.69;101354.84;4998762;28;20222;-51
2022/09/07 04:31:26;;;;;;;2.40;1.38;;;;;;;14.18;86.40;101348.22;5010117;28;20616;-49
2022/09/07 04:33:52;;;;;;;4.50;1.73;;;;;;;14.13;86.16;101344.88;5010177;28;20255;-49
2022/09/07 04:36:19;;;;;;;5.85;1.83;;;;;;;14.07;86.29;101340.63;5010060;28;20191;-51
2022/09/07 04:38:45;;;;;;;3.17;1.60;;;;;;;14.09;86.47;101338.75;5010027;28;20200;-51
2022/09/07 04:41:20;;;;;;;1.10;1.10;;;;;;;14.01;86.70;101335.50;5007942;28;20274;-53
2022/09/07 04:43:45;;;;;;;1.88;1.25;;;;;;;14.01;86.62;101333.72;4999100;28;20176;-48
2022/09/07 04:46:26;;;;;;;4.32;1.70;;;;;;;14.04;86.42;101340.78;5003734;28;20356;-47
2022/09/07 04:48:54;;;;;;;3.60;1.48;;;;;;;14.04;86.69;101332.69;5009270;28;20545;-48
2022/09/07 04:51:21;;;;;;;2.83;1.58;;;;;;;14.02;86.63;101321.97;5008032;28;20418;-48
2022/09/07 04:53:49;;;;;;;2.28;1.60;;;;;;;14.07;87.38;101320.91;5001095;28;20216;-48
2022/09/07 04:56:15;;;;;;;1.40;1.30;;;;;;;14.05;87.45;101320.09;4993101;28;20217;-48
2022/09/07 04:58:41;;;;;;;2.15;1.20;;;;;;;14.00;87.06;101321.16;4994553;28;20252;-48
2022/09/07 05:01:06;;;;;;;5.05;1.60;;;;;;;14.18;86.67;101310.50;4994269;28;20264;-50
2022/09/07 05:03:35;;;;;;;2.55;1.48;;;;;;;14.06;86.27;101306.56;5007283;28;20665;-48
2022/09/07 05:06:05;;;;;;;6.32;1.40;;;;;;;14.27;85.85;101296.59;5013624;28;20608;-48
2022/09/07 05:08:36;;;;;;;2.50;1.75;;;;;;;14.17;85.64;101292.59;5013724;28;20184;-49
2022/09/07 05:11:02;;;;;;;6.55;1.60;;;;;;;14.17;85.44;101295.28;5013389;28;20180;-46
2022/09/07 05:13:30;;;;;;;3.90;1.33;;;;;;;14.16;85.12;101302.47;5013549;28;20287;-49
2022/09/07 05:15:56;;;;;;;3.78;1.40;;;;;;;14.12;85.00;101294.59;5002381;28;20235;-48
2022/09/07 05:18:22;;;;;;;3.50;1.50;;;;;;;14.11;85.28;101317.13;5008230;28;20187;-46
2022/09/07 05:20:47;;;;;;;2.85;1.63;;;;;;;14.15;84.93;101319.59;5013849;28;20157;-49
2022/09/07 05:23:13;;;;;;;6.53;1.52;;;;;;;14.21;84.68;101315.72;5013811;28;20255;-48
2022/09/07 05:25:43;;;;;;;5.40;1.75;;;;;;;14.17;84.35;101319.53;5013934;28;20278;-47
2022/09/07 05:28:09;;;;;;;5.50;1.73;;;;;;;14.26;84.07;101326.34;5013953;28;20216;-47
2022/09/07 05:30:35;;;;;;;3.20;1.40;;;;;;;14.28;83.89;101329.81;5013702;28;20168;-48
2022/09/07 05:33:01;;;;;;;4.20;1.45;;;;;;;14.28;83.94;101332.50;5003172;28;20341;-49
2022/09/07 05:35:26;;;;;;;3.50;1.40;;;;;;;14.30;83.64;101328.81;5013563;28;20177;-47
2022/09/07 05:37:52;;;;;;;1.98;1.50;;;;;;;14.37;83.61;101332.09;5012739;28;20207;-48
2022/09/07 05:40:17;;;;;;;4.43;1.60;;;;;;;14.37;83.40;101335.66;4993563;28;20165;-49
2022/09/07 05:42:43;;;;;;;3.67;1.67;;;;;;;14.35;83.50;101334.84;4993906;28;20518;-47
2022/09/07 05:45:09;;;;;;;2.45;1.33;;;;;;;14.53;82.90;101341.22;4998685;28;20215;-47
2022/09/07 05:47:36;;;;;;;5.20;1.60;;;;;;;14.45;82.77;101338.00;5003723;28;20272;-48
2022/09/07 05:50:04;;;;;;;2.08;1.20;;;;;;;14.59;82.49;101334.72;5001715;28;20189;-46
2022/09/07 05:52:29;;;;;;;3.85;1.60;;;;;;;14.49;82.82;101336.03;5001341;28;20196;-47
2022/09/07 05:54:55;;;;;;;4.90;1.98;;;;;;;14.50;82.79;101343.19;4997745;28;20280;-47
2022/09/07 05:57:20;;;;;;;2.58;1.38;;;;;;;14.49;82.73;101338.75;4993569;28;20247;-49
2022/09/07 05:59:46;;;;;;;1.80;1.38;;;;;;;14.52;82.87;101352.06;4993790;28;20220;-47
2022/09/07 06:02:13;;;;;;;2.65;1.70;;;;;;;14.49;82.91;101360.31;5002570;28;20275;-48
2022/09/07 06:04:39;;;;;;;2.47;1.30;;;;;;;14.51;82.80;101356.59;5011379;28;20255;-46
2022/09/07 06:07:04;;;;;;;4.50;1.83;;;;;;;14.54;82.73;101364.56;4995065;28;20254;-47
2022/09/07 06:09:30;;;;;;;2.50;1.40;;;;;;;14.58;82.42;101366.19;4993007;28;20174;-46
2022/09/07 06:11:55;;;;;;;2.90;1.60;;;;;;;14.64;82.36;101373.13;4993216;28;20169;-48
2022/09/07 06:14:21;;;;;;;7.03;1.65;;;;;;;14.70;82.02;101382.75;5003018;28;20551;-48
2022/09/07 06:16:46;;;;;;;4.45;1.58;;;;;;;14.73;81.99;101380.75;5012007;28;20227;-48
2022/09/07 06:19:12;;;;;;;2.67;1.50;;;;;;;14.81;81.93;101386.69;5012679;28;20244;-49
2022/09/07 06:21:37;;;;;;;5.63;1.70;;;;;;;14.84;81.88;101385.66;5012782;28;20164;-48
2022/09/07 06:24:04;;;;;;;1.30;1.20;;;;;;;14.95;81.69;101386.03;5012442;28;20179;-48
2022/09/07 06:26:30;;;;;;;4.68;1.55;;;;;;;15.00;81.53;101375.03;5012599;28;20295;-48
2022/09/07 06:28:55;;;;;;;4.50;1.40;;;;;;;15.06;81.61;101373.84;4999935;28;20273;-48
2022/09/07 06:31:23;;;;;;;2.30;1.33;;;;;;;15.29;81.07;101367.34;5012427;28;20176;-49
2022/09/07 06:33:49;;;;;;;4.05;1.70;;;;;;;15.33;80.80;101366.25;5003249;28;20671;-48
2022/09/07 06:36:17;;;;;;;5.07;1.48;;;;;;;15.18;80.92;101349.84;5008394;28;20736;-49
2022/09/07 06:38:44;;;;;;;2.03;1.48;;;;;;;15.25;80.71;101348.56;5000208;28;20190;-51
2022/09/07 06:41:12;;;;;;;6.63;2.03;;;;;;;15.33;80.20;101358.16;5001162;28;20181;-53
2022/09/07 06:43:38;;;;;;;2.70;1.80;;;;;;;15.41;80.01;101364.00;4996249;28;20193;-53
2022/09/07 06:46:04;;;;;;;2.28;1.45;;;;;;;15.43;79.58;101370.22;4999752;28;20213;-53
2022/09/07 06:48:31;;;;;;;3.72;1.65;;;;;;;15.43;78.86;101373.78;4999279;28;20216;-54
2022/09/07 06:51:04;;;;;;;4.65;1.65;;;;;;;15.49;78.97;101364.50;4999734;28;20181;-53
2022/09/07 06:53:33;;;;;;;6.57;1.67;;;;;;;15.55;78.63;101361.50;5000036;28;20196;-53
2022/09/07 06:55:58;;;;;;;4.97;1.65;;;;;;;15.54;78.32;101354.34;5002842;28;20692;-54
2022/09/07 06:58:24;;;;;;;3.10;1.45;;;;;;;15.57;78.53;101347.94;5001993;28;20180;-54
2022/09/07 07:00:51;;;;;;;5.53;1.50;;;;;;;15.61;78.66;101357.59;5001847;28;20191;-54
2022/09/07 07:03:16;;;;;;;1.70;1.60;;;;;;;15.82;78.17;101361.06;4993488;28;20181;-54
2022/09/07 07:05:52;;;;;;;3.90;1.65;;;;;;;15.70;77.59;101358.97;5003014;28;20254;-53
2022/09/07 07:08:19;;;;;;;2.35;1.73;;;;;;;15.82;77.30;101352.97;4992937;28;20255;-54
2022/09/07 07:10:44;;;;;;;5.85;1.60;;;;;;;15.77;77.42;101350.50;4996098;28;20938;-56
2022/09/07 07:13:10;;;;;;;3.08;1.58;;;;;;;15.82;77.24;101353.84;4999261;28;20188;-48
2022/09/07 07:15:35;;;;;;;1.42;1.30;;;;;;;15.89;77.33;101345.41;4998983;28;20212;-51
2022/09/07 07:18:01;;;;;;;2.97;1.63;;;;;;;15.85;77.01;101342.88;4996995;28;20193;-54
2022/09/07 07:20:27;;;;;;;4.50;1.50;;;;;;;15.95;76.81;101345.09;4995780;28;20195;-54
2022/09/07 07:22:53;;;;;;;5.15;1.80;;;;;;;15.98;76.44;101348.53;4990609;28;20269;-52
2022/09/07 07:25:20;;;;;;;4.13;1.58;;;;;;;16.02;76.13;101343.81;4994902;28;20749;-53
2022/09/07 07:27:45;;;;;;;6.90;1.88;;;;;;;16.10;76.05;101335.31;4995778;28;20197;-54
2022/09/07 07:30:12;;;;;;;3.92;1.80;;;;;;;16.07;75.59;101344.47;4992969;28;20188;-53
2022/09/07 07:32:39;;;;;;;7.20;1.80;;;;;;;16.09;75.60;101337.13;4997840;28;20198;-55
2022/09/07 07:35:06;;;;;;;4.18;1.60;;;;;;;16.04;75.58;101342.78;4994549;28;20169;-53
2022/09/07 07:37:32;;;;;;;1.92;1.42;;;;;;;16.06;75.63;101340.88;5000063;28;20213;-52
2022/09/07 07:39:59;;;;;;;3.22;1.70;;;;;;;16.12;75.44;101336.13;5001845;28;20168;-53
2022/09/07 07:42:24;;;;;;;2.35;1.30;;;;;;;16.15;75.03;101338.63;4996662;28;20181;-52
2022/09/07 07:44:50;;;;;;;2.65;1.55;;;;;;;16.13;75.04;101341.41;4992172;28;20276;-55
2022/09/07 07:47:16;;;;;;;4.50;1.73;;;;;;;16.15;74.97;101341.34;4992710;28;20566;-53
2022/09/07 07:49:41;;;;;;;3.63;2.00;;;;;;;16.20;74.55;101345.56;4994956;28;20197;-55
2022/09/07 07:52:07;;;;;;;4.05;1.50;;;;;;;16.18;74.02;101336.66;5000789;28;20173;-52
2022/09/07 07:54:36;;;;;;;4.13;1.65;;;;;;;16.19;74.52;101330.28;5005285;28;20198;-53
2022/09/07 07:57:02;;;;;;;3.92;1.52;;;;;;;16.19;74.51;101332.13;4992375;28;20211;-54
2022/09/07 07:59:27;;;;;;;6.15;2.00;;;;;;;16.25;74.51;101329.09;4993747;28;20212;-54
2022/09/07 08:01:53;;;;;;;3.80;1.77;;;;;;;16.29;74.32;101325.25;4994922;28;20259;-50
2022/09/07 08:04:18;;;;;;;4.03;1.95;;;;;;;16.36;74.19;101329.38;5006677;28;20569;-53
2022/09/07 08:06:44;;;;;;;4.20;1.83;;;;;;;16.38;74.05;101332.88;4992923;28;20209;-53
2022/09/07 08:09:12;;;;;;;5.00;2.00;;;;;;;16.38;73.97;101332.88;5002975;28;20636;-53
2022/09/07 08:11:39;;;;;;;2.60;2.00;;;;;;;16.37;74.13;101324.81;5003566;28;20184;-52
2022/09/07 08:14:05;;;;;;;2.53;1.83;;;;;;;16.43;73.83;101329.91;5004414;28;20560;-54
2022/09/07 08:16:32;;;;;;;3.97;1.90;;;;;;;16.37;74.01;101335.66;5003897;28;20220;-52
2022/09/07 08:18:58;;;;;;;4.47;1.88;;;;;;;16.35;73.59;101327.59;4995920;28;20325;-53
2022/09/07 08:21:24;;;;;;;3.88;2.10;;;;;;;16.36;73.63;101332.06;4992384;28;20188;-49
2022/09/07 08:23:50;;;;;;;5.72;1.92;;;;;;;16.54;73.25;101337.44;4992660;28;20182;-51
2022/09/07 08:26:15;;;;;;;3.90;1.60;;;;;;;16.52;72.95;101337.50;4993711;28;20307;-53
2022/09/07 08:28:44;;;;;;;4.07;1.63;;;;;;;16.68;72.94;101334.81;4995262;28;20397;-54
2022/09/07 08:31:14;;;;;;;2.58;2.00;;;;;;;16.66;72.72;101336.75;5002826;28;20184;-52
2022/09/07 08:33:40;;;;;;;5.40;2.20;;;;;;;16.67;72.23;101330.38;5000432;28;20244;-51
2022/09/07 08:36:09;;;;;;;5.65;1.73;;;;;;;16.77;72.27;101333.44;5005967;28;20254;-51
2022/09/07 08:38:36;;;;;;;2.97;2.10;;;;;;;16.86;71.87;101341.09;5001549;28;20223;-51
2022/09/07 08:41:16;;;;;;;3.17;1.75;;;;;;;16.86;72.08;101341.09;4998927;28;20251;-53
2022/09/07 08:43:47;;;;;;;6.75;1.90;;;;;;;16.87;71.91;101338.28;5001010;28;20200;-52
2022/09/07 08:46:39;;;;;;;3.97;1.70;;;;;;;16.89;71.77;101336.34;4992409;28;20358;-53
2022/09/07 08:49:12;;;;;;;4.90;2.20;;;;;;;16.98;71.42;101353.06;4995072;28;20180;-51
2022/09/07 08:51:46;;;;;;;5.75;2.05;;;;;;;16.92;71.51;101338.00;4994299;28;20196;-53
2022/09/07 08:54:15;;;;;;;3.97;2.10;;;;;;;17.05;72.19;101330.97;4988287;28;20203;-54
2022/09/07 08:56:47;;;;;;;5.20;2.20;;;;;;;17.06;71.48;101331.84;4985742;28;20749;-54
2022/09/07 08:59:39;;;;;;;5.93;1.67;;;;;;;17.07;71.93;101315.47;4998613;28;20176;-52
2022/09/07 09:02:13;;;;;;;4.85;2.03;;;;;;;17.11;71.15;101318.91;4999977;28;20188;-52
2022/09/07 09:04:41;;;;;;;7.28;2.40;;;;;;;17.06;71.43;101311.03;5003968;28;20220;-53
2022/09/07 09:07:25;;;;;;;4.05;1.90;;;;;;;17.05;71.59;101313.81;4997453;28;20351;-54
2022/09/07 09:10:09;;;;;;;3.53;1.95;;;;;;;17.01;72.11;101313.16;4996999;28;20172;-54
2022/09/07 09:12:54;;;;;;;7.13;2.20;;;;;;;17.01;72.76;101301.44;4996331;28;20189;-54
2022/09/07 09:15:31;;;;;;;5.50;2.35;;;;;;;16.99;72.29;101296.13;4997618;28;20625;-54
2022/09/07 09:18:12;;;;;;;4.03;2.38;;;;;;;17.00;72.31;101283.44;4998321;28;20585;-53
2022/09/07 09:20:48;;;;;;;6.10;2.28;;;;;;;17.04;72.28;101291.31;4996878;28;20365;-53
2022/09/07 09:23:16;;;;;;;2.60;2.35;;;;;;;17.12;72.26;101284.56;4989294;28;20647;-54
2022/09/07 09:25:51;;;;;;;2.47;2.28;;;;;;;16.95;72.54;101299.09;4995717;28;20270;-53
2022/09/07 09:28:17;;;;;;;2.25;2.05;;;;;;;17.07;72.65;101298.38;4999077;28;20212;-53
2022/09/07 09:30:42;;;;;;;3.47;2.10;;;;;;;17.09;72.42;101300.03;4997755;28;20216;-54
2022/09/07 09:33:20;;;;;;;5.65;2.60;;;;;;;17.18;72.39;101287.78;4997133;28;20224;-53
2022/09/07 09:35:48;;;;;;;4.80;2.20;;;;;;;17.20;72.51;101293.13;5004357;28;20264;-53
2022/09/07 09:38:38;;;;;;;3.83;2.00;;;;;;;17.05;74.03;101303.00;5008064;28;20197;-53
2022/09/07 09:41:14;;;;;;;3.47;2.15;;;;;;;17.11;74.38;101289.13;5002013;28;20193;-52
2022/09/07 09:43:53;;;;;;;4.65;2.20;;;;;;;17.04;74.30;101277.78;5000391;28;20189;-52
2022/09/07 09:46:33;;;;;;;3.30;2.30;;;;;;;17.11;74.32;101289.13;5001469;28;20216;-51
2022/09/07 09:49:02;;;;;;;6.78;2.30;;;;;;;17.21;74.15;101275.94;4996424;28;20755;-53
2022/09/07 09:51:32;;;;;;;4.50;2.47;;;;;;;17.28;73.95;101286.28;5002343;28;20196;-52
2022/09/07 09:54:04;;;;;;;5.13;2.45;;;;;;;17.36;73.91;101284.94;5001751;28;20198;-53
2022/09/07 09:56:42;;;;;;;6.97;2.72;;;;;;;17.29;74.19;101281.75;5004159;28;20220;-53
2022/09/07 09:59:17;;;;;;;4.15;2.33;;;;;;;17.28;74.07;101286.28;4995028;28;20189;-51
2022/09/07 10:01:44;;;;;;;6.07;2.70;;;;;;;17.26;73.19;101287.34;4999343;28;20323;-53
2022/09/07 10:04:22;;;;;;;3.00;2.40;;;;;;;17.21;72.61;101281.34;4999060;28;20659;-52
2022/09/07 10:06:54;;;;;;;4.93;2.80;;;;;;;17.25;72.39;101285.59;4999622;28;20217;-52
2022/09/07 10:09:34;;;;;;;4.28;2.60;;;;;;;17.29;73.51;101277.22;4999015;28;20186;-52
2022/09/07 10:12:02;;;;;;;8.73;2.78;;;;;;;17.33;73.26;101277.03;4996744;28;20185;-51
2022/09/07 10:14:31;;;;;;;3.22;2.58;;;;;;;17.42;75.51;101274.63;4998619;28;20272;-52
2022/09/07 10:16:58;;;;;;;4.93;2.58;;;;;;;17.46;74.65;101243.69;4999583;28;20577;-52
2022/09/07 10:19:29;;;;;;;4.07;2.42;;;;;;;17.42;75.64;101261.06;4999781;28;20207;-55
2022/09/07 10:21:57;;;;;;;5.75;2.50;;;;;;;17.44;76.68;101261.00;5006066;28;20632;-52
2022/09/07 10:24:24;;;;;;;7.82;3.08;;;;;;;17.44;79.51;101271.84;4996108;28;20195;-51
2022/09/07 10:26:50;;;;;;;3.92;3.08;;;;;;;17.34;80.95;101274.22;4999093;28;20212;-53
2022/09/07 10:29:34;;;;;;;11.15;3.53;;;;;;;17.13;82.10;101286.31;5003043;28;20183;-51
2022/09/07 10:32:03;;;;;;;7.57;3.22;;;;;;;17.09;82.54;101277.50;5010100;28;20272;-52
2022/09/07 10:35:20;;;;;;;3.83;2.80;;;;;;;17.14;82.56;101275.38;5000117;28;20220;-51
2022/09/07 10:38:00;;;;;;;6.32;3.20;;;;;;;17.06;83.02;101277.69;4958889;28;20223;-53
2022/09/07 10:40:42;;;;;;;4.40;2.90;;;;;;;16.93;83.39;101285.66;5014958;28;20192;-53
2022/09/07 10:43:26;;;;;;;4.72;2.42;;;;;;;17.04;83.71;101277.78;5002354;28;20198;-52
2022/09/07 10:46:16;;;;;;;3.65;3.10;;;;;;;16.98;84.48;101271.84;5001637;28;20625;-52
2022/09/07 10:49:23;;;;;;;3.47;2.83;;;;;;;17.05;84.30;101275.94;4996852;28;20263;-53
2022/09/07 10:52:15;;;;;;;8.95;3.25;;;;;;;16.89;83.63;101273.25;4990530;28;20208;-52
2022/09/07 10:54:53;;;;;;;4.85;3.50;;;;;;;16.90;84.64;101283.09;4997362;28;20189;-48
2022/09/07 10:57:46;;;;;;;6.47;3.28;;;;;;;16.93;84.13;101282.06;5002598;28;20251;-47
2022/09/07 11:00:16;;;;;;;6.18;3.28;;;;;;;16.91;84.96;101294.81;4997360;28;20189;-47
2022/09/07 11:02:51;;;;;;;6.57;3.50;;;;;;;16.69;86.63;101290.59;4996423;28;20557;-48
2022/09/07 11:05:28;;;;;;;6.90;3.80;;;;;;;16.57;89.08;101291.25;5000398;28;20196;-48
2022/09/07 11:07:53;;;;;;;3.95;3.47;;;;;;;16.50;90.74;101306.09;4987721;28;20256;-47
2022/09/07 11:10:36;;;;;;;5.80;3.38;;;;;;;16.43;92.12;101301.03;5003114;28;20196;-47
2022/09/07 11:13:04;;;;;;;8.73;3.78;;;;;;;16.30;91.96;101289.13;4994703;28;20189;-47
2022/09/07 11:15:45;;;;;;;6.47;3.75;;;;;;;16.41;91.49;101297.53;5001242;28;20220;-53
2022/09/07 11:18:16;;;;;;;7.97;4.00;;;;;;;16.39;90.80;101293.16;4999356;28;20185;-52
2022/09/07 11:20:55;;;;;;;7.25;4.15;;;;;;;16.29;93.23;101287.41;5001647;28;20200;-53
2022/09/07 11:23:42;;;;;;;5.97;4.03;;;;;;;16.18;94.87;101285.28;5002761;28;20220;-52
2022/09/07 11:26:36;;;;;;;6.70;4.05;;;;;;;16.16;97.22;101289.91;5000748;28;20209;-53
2022/09/07 11:29:09;;;;;;;9.50;4.35;;;;;;;16.28;98.03;101291.06;4999269;28;20188;-54
2022/09/07 11:31:42;;;;;;;9.57;3.65;;;;;;;16.44;97.98;101293.78;4998759;28;20208;-52
2022/09/07 11:34:20;;;;;;;5.45;3.28;;;;;;;16.43;96.78;101295.63;4998993;28;20189;-53
2022/09/07 11:36:54;;;;;;;5.55;3.58;;;;;;;16.23;95.85;101288.59;4998043;28;20209;-51
2022/09/07 11:39:29;;;;;;;7.22;3.55;;;;;;;16.15;95.98;101298.09;4994732;28;20610;-53
2022/09/07 11:42:01;;;;;;;7.40;3.97;;;;;;;16.14;96.73;101294.53;4997101;28;20200;-50